sensor_id;sensor_type;location;lat;lon;timestamp;pressure;altitude;pressure_sealevel;temperature
62107;BMP280;48087;32.600;-97.100;2023-02-28T00:02:12;;;;23.055325
62107;BMP280;48087;32.600;-97.100;2023-02-28T00:07:17;;;;22.721995000000003
62107;BMP280;48087;32.600;-97.100;2023-02-28T00:12:20;;;;22.33311
62107;BMP280;48087;32.600;-97.100;2023-02-28T00:17:25;;;;22.110889999999998
62107;BMP280;48087;32.600;-97.100;2023-02-28T00:22:28;;;;21.610895000000003
62107;BMP280;48087;32.600;-97.100;2023-02-28T00:27:33;;;;21.1109
62107;BMP280;48087;32.600;-97.100;2023-02-28T00:32:36;;;;20.277575
62107;BMP280;48087;32.600;-97.100;2023-02-28T00:37:42;;;;19.610915
62107;BMP280;48087;32.600;-97.100;2023-02-28T00:42:44;;;;19.222029999999997
62107;BMP280;48087;32.600;-97.100;2023-02-28T00:47:49;;;;18.777589999999996
62107;BMP280;48087;32.600;-97.100;2023-02-28T00:52:52;;;;18.555370000000003
62107;BMP280;48087;32.600;-97.100;2023-02-28T00:57:57;;;;18.22204
62107;BMP280;48087;32.600;-97.100;2023-02-28T01:03:00;;;;17.7776
62107;BMP280;48087;32.600;-97.100;2023-02-28T01:08:05;;;;17.88871
62107;BMP280;48087;32.600;-97.100;2023-02-28T01:13:08;;;;17.944264999999998
62107;BMP280;48087;32.600;-97.100;2023-02-28T01:18:13;;;;17.833154999999998
62107;BMP280;48087;32.600;-97.100;2023-02-28T01:23:16;;;;17.277605
62107;BMP280;48087;32.600;-97.100;2023-02-28T01:28:21;;;;16.722055
62107;BMP280;48087;32.600;-97.100;2023-02-28T01:33:24;;;;16.277614999999997
62107;BMP280;48087;32.600;-97.100;2023-02-28T01:38:29;;;;15.88873
62107;BMP280;48087;32.600;-97.100;2023-02-28T01:43:39;;;;15.777619999999999
62107;BMP280;48087;32.600;-97.100;2023-02-28T01:48:38;;;;15.777619999999999
62107;BMP280;48087;32.600;-97.100;2023-02-28T01:53:41;;;;15.610955
62107;BMP280;48087;32.600;-97.100;2023-02-28T01:58:45;;;;15.444289999999999
62107;BMP280;48087;32.600;-97.100;2023-02-28T02:03:48;;;;15.277625
62107;BMP280;48087;32.600;-97.100;2023-02-28T02:08:53;;;;14.944294999999999
62107;BMP280;48087;32.600;-97.100;2023-02-28T02:14:00;;;;14.666519999999998
62107;BMP280;48087;32.600;-97.100;2023-02-28T02:19:03;;;;14.833185000000002
62107;BMP280;48087;32.600;-97.100;2023-02-28T02:24:11;;;;14.944294999999999
62107;BMP280;48087;32.600;-97.100;2023-02-28T02:34:46;;;;14.4443
62107;BMP280;48087;32.600;-97.100;2023-02-28T02:39:19;;;;14.277635000000002
62107;BMP280;48087;32.600;-97.100;2023-02-28T02:44:20;;;;14.333189999999998
62107;BMP280;48087;32.600;-97.100;2023-02-28T02:49:26;;;;14.722075
62107;BMP280;48087;32.600;-97.100;2023-02-28T02:54:28;;;;14.499855
62107;BMP280;48087;32.600;-97.100;2023-02-28T02:59:33;;;;14.166525
62107;BMP280;48087;32.600;-97.100;2023-02-28T03:04:38;;;;13.999860000000002
62107;BMP280;48087;32.600;-97.100;2023-02-28T03:09:49;;;;14.055414999999998
62107;BMP280;48087;32.600;-97.100;2023-02-28T03:14:47;;;;14.110969999999998
62107;BMP280;48087;32.600;-97.100;2023-02-28T03:19:52;;;;13.944305
62107;BMP280;48087;32.600;-97.100;2023-02-28T03:24:54;;;;13.833194999999998
62107;BMP280;48087;32.600;-97.100;2023-02-28T03:29:58;;;;14.333189999999998
62107;BMP280;48087;32.600;-97.100;2023-02-28T03:35:00;;;;14.4443
62107;BMP280;48087;32.600;-97.100;2023-02-28T03:40:06;;;;14.499855
62107;BMP280;48087;32.600;-97.100;2023-02-28T03:45:10;;;;14.388744999999998
62107;BMP280;48087;32.600;-97.100;2023-02-28T03:50:13;;;;14.277635000000002
62107;BMP280;48087;32.600;-97.100;2023-02-28T03:55:16;;;;14.499855
62107;BMP280;48087;32.600;-97.100;2023-02-28T04:00:21;;;;14.666519999999998
62107;BMP280;48087;32.600;-97.100;2023-02-28T04:05:24;;;;14.722075
62107;BMP280;48087;32.600;-97.100;2023-02-28T04:10:29;;;;14.610964999999998
62107;BMP280;48087;32.600;-97.100;2023-02-28T04:15:32;;;;14.555410000000002
62107;BMP280;48087;32.600;-97.100;2023-02-28T04:20:36;;;;14.722075
62107;BMP280;48087;32.600;-97.100;2023-02-28T04:25:40;;;;14.666519999999998
62107;BMP280;48087;32.600;-97.100;2023-02-28T04:30:44;;;;14.333189999999998
62107;BMP280;48087;32.600;-97.100;2023-02-28T04:35:47;;;;14.110969999999998
62107;BMP280;48087;32.600;-97.100;2023-02-28T04:40:53;;;;13.66653
62107;BMP280;48087;32.600;-97.100;2023-02-28T04:45:56;;;;13.166535000000001
62107;BMP280;48087;32.600;-97.100;2023-02-28T04:51:00;;;;12.77765
62107;BMP280;48087;32.600;-97.100;2023-02-28T04:56:05;;;;12.277655000000001
62107;BMP280;48087;32.600;-97.100;2023-02-28T05:01:16;;;;11.999880000000001
62107;BMP280;48087;32.600;-97.100;2023-02-28T05:06:12;;;;11.88877
62107;BMP280;48087;32.600;-97.100;2023-02-28T05:11:17;;;;11.777660000000001
62107;BMP280;48087;32.600;-97.100;2023-02-28T05:16:20;;;;11.722105
62107;BMP280;48087;32.600;-97.100;2023-02-28T05:21:26;;;;11.999880000000001
62107;BMP280;48087;32.600;-97.100;2023-02-28T05:26:28;;;;12.055435000000001
62107;BMP280;48087;32.600;-97.100;2023-02-28T05:31:31;;;;11.999880000000001
62107;BMP280;48087;32.600;-97.100;2023-02-28T05:36:36;;;;12.055435000000001
62107;BMP280;48087;32.600;-97.100;2023-02-28T05:41:40;;;;11.833214999999997
62107;BMP280;48087;32.600;-97.100;2023-02-28T05:46:44;;;;11.666549999999999
62107;BMP280;48087;32.600;-97.100;2023-02-28T05:51:48;;;;11.610994999999999
62107;BMP280;48087;32.600;-97.100;2023-02-28T05:56:52;;;;11.333219999999999
62107;BMP280;48087;32.600;-97.100;2023-02-28T06:01:56;;;;11.055444999999999
62107;BMP280;48087;32.600;-97.100;2023-02-28T06:07:00;;;;10.66656
62107;BMP280;48087;32.600;-97.100;2023-02-28T06:12:05;;;;10.33323
62107;BMP280;48087;32.600;-97.100;2023-02-28T06:17:09;;;;10.444339999999999
62107;BMP280;48087;32.600;-97.100;2023-02-28T06:22:11;;;;10.33323
62107;BMP280;48087;32.600;-97.100;2023-02-28T06:27:16;;;;9.888789999999998
62107;BMP280;48087;32.600;-97.100;2023-02-28T06:32:19;;;;9.611014999999998
62107;BMP280;48087;32.600;-97.100;2023-02-28T06:37:24;;;;9.277685000000002
62107;BMP280;48087;32.600;-97.100;2023-02-28T06:42:28;;;;9.166575
62107;BMP280;48087;32.600;-97.100;2023-02-28T06:47:32;;;;9.333239999999998
62107;BMP280;48087;32.600;-97.100;2023-02-28T06:52:36;;;;9.77768
62107;BMP280;48087;32.600;-97.100;2023-02-28T06:57:39;;;;10.166564999999999
62107;BMP280;48087;32.600;-97.100;2023-02-28T07:02:43;;;;10.33323
62107;BMP280;48087;32.600;-97.100;2023-02-28T07:07:47;;;;10.499894999999999
62107;BMP280;48087;32.600;-97.100;2023-02-28T07:12:52;;;;10.611005
62107;BMP280;48087;32.600;-97.100;2023-02-28T07:17:56;;;;10.722114999999999
62107;BMP280;48087;32.600;-97.100;2023-02-28T07:22:59;;;;10.833225
62107;BMP280;48087;32.600;-97.100;2023-02-28T07:28:04;;;;11.22211
62107;BMP280;48087;32.600;-97.100;2023-02-28T07:33:07;;;;11.333219999999999
62107;BMP280;48087;32.600;-97.100;2023-02-28T07:38:11;;;;11.555439999999999
62107;BMP280;48087;32.600;-97.100;2023-02-28T07:43:15;;;;11.555439999999999
62107;BMP280;48087;32.600;-97.100;2023-02-28T07:48:19;;;;11.499885
62107;BMP280;48087;32.600;-97.100;2023-02-28T07:53:23;;;;11.555439999999999
62107;BMP280;48087;32.600;-97.100;2023-02-28T07:58:28;;;;11.722105
62107;BMP280;48087;32.600;-97.100;2023-02-28T13:50:43;;;;10.66656
62107;BMP280;48087;32.600;-97.100;2023-02-28T13:55:46;;;;11.166555
62107;BMP280;48087;32.600;-97.100;2023-02-28T14:01:11;;;;11.777660000000001
62107;BMP280;48087;32.600;-97.100;2023-02-28T14:06:14;;;;12.055435000000001
62107;BMP280;48087;32.600;-97.100;2023-02-28T14:11:23;;;;12.77765
62107;BMP280;48087;32.600;-97.100;2023-02-28T14:16:19;;;;13.777639999999998
62107;BMP280;48087;32.600;-97.100;2023-02-28T14:21:24;;;;14.610964999999998
62107;BMP280;48087;32.600;-97.100;2023-02-28T14:26:29;;;;14.499855
62107;BMP280;48087;32.600;-97.100;2023-02-28T14:31:32;;;;14.99985
62107;BMP280;48087;32.600;-97.100;2023-02-28T14:36:35;;;;15.33318
62107;BMP280;48087;32.600;-97.100;2023-02-28T14:41:39;;;;15.944285
62107;BMP280;48087;32.600;-97.100;2023-02-28T14:46:42;;;;16.722055
62107;BMP280;48087;32.600;-97.100;2023-02-28T14:51:47;;;;17.277605
62107;BMP280;48087;32.600;-97.100;2023-02-28T14:56:49;;;;17.722044999999998
62107;BMP280;48087;32.600;-97.100;2023-02-28T15:02:29;;;;17.833154999999998
62107;BMP280;48087;32.600;-97.100;2023-02-28T15:07:14;;;;18.055374999999998
62107;BMP280;48087;32.600;-97.100;2023-02-28T15:12:02;;;;18.277595
62107;BMP280;48087;32.600;-97.100;2023-02-28T15:17:06;;;;18.666479999999996
62107;BMP280;48087;32.600;-97.100;2023-02-28T15:22:12;;;;19.166475
62107;BMP280;48087;32.600;-97.100;2023-02-28T15:27:16;;;;19.277585000000002
62107;BMP280;48087;32.600;-97.100;2023-02-28T15:32:23;;;;19.55536
62107;BMP280;48087;32.600;-97.100;2023-02-28T15:37:37;;;;19.777579999999997
62107;BMP280;48087;32.600;-97.100;2023-02-28T15:42:27;;;;19.9998
62107;BMP280;48087;32.600;-97.100;2023-02-28T15:47:30;;;;20.388685000000002
62107;BMP280;48087;32.600;-97.100;2023-02-28T15:52:38;;;;20.444239999999997
62107;BMP280;48087;32.600;-97.100;2023-02-28T15:57:39;;;;20.66646
62107;BMP280;48087;32.600;-97.100;2023-02-28T16:02:42;;;;20.944235000000003
62107;BMP280;48087;32.600;-97.100;2023-02-28T16:07:46;;;;21.22201
62107;BMP280;48087;32.600;-97.100;2023-02-28T16:12:52;;;;21.388675
62107;BMP280;48087;32.600;-97.100;2023-02-28T16:17:55;;;;21.499785000000003
62107;BMP280;48087;32.600;-97.100;2023-02-28T16:22:58;;;;21.944225
62107;BMP280;48087;32.600;-97.100;2023-02-28T16:28:03;;;;22.055335
62107;BMP280;48087;32.600;-97.100;2023-02-28T16:33:07;;;;22.33311
62107;BMP280;48087;32.600;-97.100;2023-02-28T16:38:10;;;;22.610885
62107;BMP280;48087;32.600;-97.100;2023-02-28T16:43:15;;;;22.99977
62107;BMP280;48087;32.600;-97.100;2023-02-28T16:48:18;;;;23.388654999999996
62107;BMP280;48087;32.600;-97.100;2023-02-28T16:53:22;;;;23.721985
62107;BMP280;48087;32.600;-97.100;2023-02-28T16:58:26;;;;23.944204999999997
62107;BMP280;48087;32.600;-97.100;2023-02-28T17:03:29;;;;24.4442
62107;BMP280;48087;32.600;-97.100;2023-02-28T17:08:33;;;;24.610864999999997
62107;BMP280;48087;32.600;-97.100;2023-02-28T17:13:37;;;;24.777529999999995
62107;BMP280;48087;32.600;-97.100;2023-02-28T17:18:42;;;;24.99975
62107;BMP280;48087;32.600;-97.100;2023-02-28T17:23:45;;;;25.277525
62107;BMP280;48087;32.600;-97.100;2023-02-28T17:28:50;;;;25.333079999999995
62107;BMP280;48087;32.600;-97.100;2023-02-28T17:33:54;;;;25.388635
62107;BMP280;48087;32.600;-97.100;2023-02-28T17:38:58;;;;25.721964999999997
62107;BMP280;48087;32.600;-97.100;2023-02-28T17:44:02;;;;26.055295
62107;BMP280;48087;32.600;-97.100;2023-02-28T17:49:05;;;;26.22196
62107;BMP280;48087;32.600;-97.100;2023-02-28T17:54:10;;;;26.444179999999996
62107;BMP280;48087;32.600;-97.100;2023-02-28T17:59:14;;;;26.944174999999998
62107;BMP280;48087;32.600;-97.100;2023-02-28T18:04:19;;;;26.721954999999998
62107;BMP280;48087;32.600;-97.100;2023-02-28T18:09:21;;;;27.11084
62107;BMP280;48087;32.600;-97.100;2023-02-28T18:14:25;;;;27.499724999999998
62107;BMP280;48087;32.600;-97.100;2023-02-28T18:19:29;;;;27.388614999999998
62107;BMP280;48087;32.600;-97.100;2023-02-28T18:24:33;;;;27.277504999999998
62107;BMP280;48087;32.600;-97.100;2023-02-28T18:29:37;;;;27.22195
62107;BMP280;48087;32.600;-97.100;2023-02-28T18:34:41;;;;27.277504999999998
62107;BMP280;48087;32.600;-97.100;2023-02-28T18:39:45;;;;27.277504999999998
62107;BMP280;48087;32.600;-97.100;2023-02-28T18:44:50;;;;27.555279999999996
62107;BMP280;48087;32.600;-97.100;2023-02-28T18:49:53;;;;27.444170000000003
62107;BMP280;48087;32.600;-97.100;2023-02-28T18:54:57;;;;27.833054999999995
62107;BMP280;48087;32.600;-97.100;2023-02-28T19:00:01;;;;28.221939999999996
62107;BMP280;48087;32.600;-97.100;2023-02-28T19:05:05;;;;28.777489999999997
62107;BMP280;48087;32.600;-97.100;2023-02-28T19:10:09;;;;28.721935000000002
62107;BMP280;48087;32.600;-97.100;2023-02-28T19:15:13;;;;28.99971
62107;BMP280;48087;32.600;-97.100;2023-02-28T19:20:17;;;;29.055265
62107;BMP280;48087;32.600;-97.100;2023-02-28T19:25:21;;;;28.777489999999997
62107;BMP280;48087;32.600;-97.100;2023-02-28T19:30:24;;;;28.555270000000004
62107;BMP280;48087;32.600;-97.100;2023-02-28T19:35:30;;;;29.221929999999997
62107;BMP280;48087;32.600;-97.100;2023-02-28T19:40:32;;;;28.721935000000002
62107;BMP280;48087;32.600;-97.100;2023-02-28T19:45:38;;;;29.277485000000002
62107;BMP280;48087;32.600;-97.100;2023-02-28T19:50:41;;;;29.666370000000004
62107;BMP280;48087;32.600;-97.100;2023-02-28T19:55:45;;;;29.388595000000002
62107;BMP280;48087;32.600;-97.100;2023-02-28T20:00:48;;;;29.944145000000002
62107;BMP280;48087;32.600;-97.100;2023-02-28T20:06:02;;;;29.721925
62107;BMP280;48087;32.600;-97.100;2023-02-28T20:11:00;;;;29.777479999999997
62107;BMP280;48087;32.600;-97.100;2023-02-28T20:16:01;;;;29.777479999999997
62107;BMP280;48087;32.600;-97.100;2023-02-28T20:21:06;;;;29.833035000000002
62107;BMP280;48087;32.600;-97.100;2023-02-28T20:26:10;;;;29.166375
62107;BMP280;48087;32.600;-97.100;2023-02-28T20:31:13;;;;29.944145000000002
62107;BMP280;48087;32.600;-97.100;2023-02-28T20:36:17;;;;30.11081
62107;BMP280;48087;32.600;-97.100;2023-02-28T20:41:21;;;;30.22192
62107;BMP280;48087;32.600;-97.100;2023-02-28T20:46:25;;;;30.11081
62107;BMP280;48087;32.600;-97.100;2023-02-28T20:51:28;;;;29.777479999999997
62107;BMP280;48087;32.600;-97.100;2023-02-28T20:56:33;;;;29.833035000000002
62107;BMP280;48087;32.600;-97.100;2023-02-28T21:01:37;;;;30.277475
62107;BMP280;48087;32.600;-97.100;2023-02-28T21:06:42;;;;30.610804999999996
62107;BMP280;48087;32.600;-97.100;2023-02-28T21:11:44;;;;29.9997
62107;BMP280;48087;32.600;-97.100;2023-02-28T21:16:49;;;;30.333029999999997
62107;BMP280;48087;32.600;-97.100;2023-02-28T21:21:53;;;;30.721915
62107;BMP280;48087;32.600;-97.100;2023-02-28T21:26:57;;;;30.610804999999996
62107;BMP280;48087;32.600;-97.100;2023-02-28T21:32:00;;;;30.166365
62107;BMP280;48087;32.600;-97.100;2023-02-28T21:37:05;;;;29.944145000000002
62107;BMP280;48087;32.600;-97.100;2023-02-28T21:42:08;;;;30.499695000000003
62107;BMP280;48087;32.600;-97.100;2023-02-28T21:47:13;;;;30.721915
62107;BMP280;48087;32.600;-97.100;2023-02-28T21:52:16;;;;31.77746
62107;BMP280;48087;32.600;-97.100;2023-02-28T21:57:21;;;;31.610795000000003
62107;BMP280;48087;32.600;-97.100;2023-02-28T22:02:24;;;;31.444129999999998
62107;BMP280;48087;32.600;-97.100;2023-02-28T22:07:29;;;;31.610795000000003
62107;BMP280;48087;32.600;-97.100;2023-02-28T22:12:32;;;;31.388575
62107;BMP280;48087;32.600;-97.100;2023-02-28T22:17:37;;;;31.22191
62107;BMP280;48087;32.600;-97.100;2023-02-28T22:22:40;;;;30.888579999999997
62107;BMP280;48087;32.600;-97.100;2023-02-28T22:27:45;;;;30.22192
62107;BMP280;48087;32.600;-97.100;2023-02-28T22:32:48;;;;30.055254999999995
62107;BMP280;48087;32.600;-97.100;2023-02-28T22:37:53;;;;30.166365
62107;BMP280;48087;32.600;-97.100;2023-02-28T22:42:56;;;;30.166365
62107;BMP280;48087;32.600;-97.100;2023-02-28T22:48:01;;;;29.333039999999997
62107;BMP280;48087;32.600;-97.100;2023-02-28T22:53:04;;;;29.333039999999997
62107;BMP280;48087;32.600;-97.100;2023-02-28T22:58:09;;;;29.499704999999995
62107;BMP280;48087;32.600;-97.100;2023-02-28T23:03:12;;;;29.333039999999997
62107;BMP280;48087;32.600;-97.100;2023-02-28T23:08:17;;;;29.221929999999997
62107;BMP280;48087;32.600;-97.100;2023-02-28T23:13:20;;;;29.110820000000004
62107;BMP280;48087;32.600;-97.100;2023-02-28T23:18:24;;;;29.166375
62107;BMP280;48087;32.600;-97.100;2023-02-28T23:23:28;;;;29.221929999999997
62107;BMP280;48087;32.600;-97.100;2023-02-28T23:28:32;;;;29.388595000000002
62107;BMP280;48087;32.600;-97.100;2023-02-28T23:33:36;;;;29.277485000000002
62107;BMP280;48087;32.600;-97.100;2023-02-28T23:38:41;;;;28.99971
62107;BMP280;48087;32.600;-97.100;2023-02-28T23:43:44;;;;28.777489999999997
62107;BMP280;48087;32.600;-97.100;2023-02-28T23:48:48;;;;28.666379999999997
62107;BMP280;48087;32.600;-97.100;2023-02-28T23:53:52;;;;28.221939999999996
62107;BMP280;48087;32.600;-97.100;2023-02-28T23:58:57;;;;27.499724999999998
